Time;durP1;ratioP1;P1;durP2;ratioP2;P2;SDS_P1;SDS_P2;PMS_P1;PMS_P2;Temp;Humidity;BMP_temperature;BMP_pressure;BME280_temperature;BME280_humidity;BME280_pressure;Samples;Min_cycle;Max_cycle;Signal;HPM_P1;HPM_P2
2021/12/03 00:00:46;;;;;;;39.95;35.85;;;;;;;;;;5053041;28;20216;-85
2021/12/03 00:03:14;;;;;;;39.67;35.53;;;;;;;;;;5053193;28;20217;-85
2021/12/03 00:05:44;;;;;;;37.40;33.67;;;;;;;;;;5052966;28;20634;-85
2021/12/03 00:08:12;;;;;;;38.65;34.90;;;;;;;;;;5053252;28;20199;-85
2021/12/03 00:10:39;;;;;;;38.17;34.35;;;;;;;;;;5053407;28;20284;-85
2021/12/03 00:13:08;;;;;;;37.97;34.40;;;;;;;;;;5052971;28;20193;-84
2021/12/03 00:15:36;;;;;;;39.10;35.42;;;;;;;;;;5056345;28;20190;-84
2021/12/03 00:18:04;;;;;;;38.35;34.50;;;;;;;;;;5056968;28;20212;-85
2021/12/03 00:20:35;;;;;;;37.45;33.88;;;;;;;;;;5057472;28;20184;-85
2021/12/03 00:23:05;;;;;;;38.85;35.10;;;;;;;;;;5057298;28;20196;-85
2021/12/03 00:25:32;;;;;;;37.25;33.63;;;;;;;;;;5057226;28;20578;-84
2021/12/03 00:28:00;;;;;;;35.78;32.47;;;;;;;;;;5057327;28;20196;-85
2021/12/03 00:30:28;;;;;;;41.97;37.88;;;;;;;;;;5056892;28;20193;-84
2021/12/03 00:32:55;;;;;;;39.75;35.83;;;;;;;;;;5057128;28;20271;-85
2021/12/03 00:35:23;;;;;;;39.33;35.33;;;;;;;;;;5056745;28;20235;-85
2021/12/03 00:37:52;;;;;;;40.05;36.10;;;;;;;;;;5057131;28;20549;-84
2021/12/03 00:40:22;;;;;;;42.22;37.92;;;;;;;;;;5056724;28;20714;-84
2021/12/03 00:42:50;;;;;;;43.15;38.78;;;;;;;;;;5056903;28;20561;-84
2021/12/03 00:45:17;;;;;;;45.88;40.47;;;;;;;;;;5056513;28;20204;-84
2021/12/03 00:47:45;;;;;;;47.53;40.17;;;;;;;;;;5056687;28;20208;-85
2021/12/03 00:50:14;;;;;;;45.75;40.45;;;;;;;;;;5056473;28;20186;-85
2021/12/03 00:52:41;;;;;;;47.47;42.47;;;;;;;;;;5056483;28;20235;-84
2021/12/03 00:55:10;;;;;;;49.22;41.45;;;;;;;;;;5056707;28;20195;-85
2021/12/03 00:57:39;;;;;;;46.65;40.95;;;;;;;;;;5056646;28;20207;-84
2021/12/03 01:00:09;;;;;;;47.40;41.00;;;;;;;;;;5056710;28;20666;-85
2021/12/03 01:02:36;;;;;;;47.95;42.65;;;;;;;;;;5056795;28;20624;-84
2021/12/03 01:05:04;;;;;;;43.33;38.83;;;;;;;;;;5055127;28;20257;-85
2021/12/03 01:07:31;;;;;;;46.00;40.63;;;;;;;;;;5056693;28;20242;-84
2021/12/03 01:09:59;;;;;;;46.08;40.58;;;;;;;;;;5054985;28;20655;-85
2021/12/03 01:12:26;;;;;;;44.17;39.42;;;;;;;;;;5056159;28;20242;-85
2021/12/03 01:14:55;;;;;;;45.10;40.40;;;;;;;;;;5056166;28;20192;-84
2021/12/03 01:17:22;;;;;;;44.22;39.45;;;;;;;;;;5056280;28;20205;-84
2021/12/03 01:19:50;;;;;;;41.75;37.53;;;;;;;;;;5056354;28;20206;-85
2021/12/03 01:22:17;;;;;;;40.17;36.08;;;;;;;;;;5055725;28;20231;-85
2021/12/03 01:24:45;;;;;;;37.08;33.67;;;;;;;;;;5054678;28;20211;-85
2021/12/03 01:27:13;;;;;;;40.03;35.88;;;;;;;;;;5054919;28;20552;-85
2021/12/03 01:29:40;;;;;;;38.67;34.83;;;;;;;;;;5055819;28;20198;-85
2021/12/03 01:32:09;;;;;;;40.17;36.38;;;;;;;;;;5055711;28;20752;-85
2021/12/03 01:34:36;;;;;;;41.03;36.80;;;;;;;;;;5055776;28;20188;-84
2021/12/03 01:37:04;;;;;;;39.45;35.45;;;;;;;;;;5055626;28;20213;-84
2021/12/03 01:39:31;;;;;;;40.55;36.25;;;;;;;;;;5056026;28;20192;-85
2021/12/03 01:41:59;;;;;;;40.88;36.65;;;;;;;;;;5054862;28;20679;-84
2021/12/03 01:44:27;;;;;;;37.33;33.42;;;;;;;;;;5055705;28;20192;-85
2021/12/03 01:46:54;;;;;;;44.75;39.95;;;;;;;;;;5054587;28;20205;-85
2021/12/03 01:49:24;;;;;;;42.90;38.38;;;;;;;;;;5055661;28;20685;-84
2021/12/03 01:51:51;;;;;;;43.85;38.33;;;;;;;;;;5055496;28;20320;-84
2021/12/03 01:54:19;;;;;;;42.60;38.38;;;;;;;;;;5055833;28;20264;-85
2021/12/03 01:56:46;;;;;;;44.00;39.50;;;;;;;;;;5055230;28;20259;-84
2021/12/03 01:59:14;;;;;;;42.78;38.20;;;;;;;;;;5055350;28;20646;-84
2021/12/03 02:01:41;;;;;;;46.00;40.97;;;;;;;;;;5055475;28;20568;-85
2021/12/03 02:04:09;;;;;;;44.75;39.55;;;;;;;;;;5055395;28;20614;-84
2021/12/03 02:06:38;;;;;;;45.38;40.65;;;;;;;;;;5055101;28;20205;-84
2021/12/03 02:09:06;;;;;;;47.33;42.25;;;;;;;;;;5055512;28;20196;-84
2021/12/03 02:11:33;;;;;;;37.55;34.20;;;;;;;;;;5055215;28;20328;-85
2021/12/03 02:14:01;;;;;;;42.75;38.15;;;;;;;;;;5053785;28;20200;-84
2021/12/03 02:16:28;;;;;;;44.58;39.80;;;;;;;;;;5055314;28;20196;-84
2021/12/03 02:18:56;;;;;;;40.70;36.15;;;;;;;;;;5055258;28;20238;-84
2021/12/03 02:21:25;;;;;;;41.35;35.58;;;;;;;;;;5053562;28;20283;-85
2021/12/03 02:23:52;;;;;;;49.38;41.95;;;;;;;;;;5055044;28;20189;-84
2021/12/03 02:26:20;;;;;;;45.53;40.58;;;;;;;;;;5054877;28;20221;-84
2021/12/03 02:28:48;;;;;;;58.85;43.70;;;;;;;;;;5055098;28;20195;-84
2021/12/03 02:31:16;;;;;;;44.65;39.90;;;;;;;;;;5054849;28;20602;-84
2021/12/03 02:33:44;;;;;;;45.55;40.47;;;;;;;;;;5054509;28;20189;-84
2021/12/03 02:36:11;;;;;;;47.60;41.85;;;;;;;;;;5054896;28;20189;-84
2021/12/03 02:38:41;;;;;;;49.63;42.85;;;;;;;;;;5054778;28;20263;-85
2021/12/03 02:41:08;;;;;;;50.13;42.50;;;;;;;;;;5054578;28;20205;-84
2021/12/03 02:43:36;;;;;;;50.63;41.60;;;;;;;;;;5054535;28;20212;-84
2021/12/03 02:46:03;;;;;;;50.15;41.75;;;;;;;;;;5054777;28;20586;-85
2021/12/03 02:48:34;;;;;;;48.92;41.33;;;;;;;;;;5054552;28;20548;-84
2021/12/03 02:51:02;;;;;;;47.28;39.72;;;;;;;;;;5054736;28;20643;-84
2021/12/03 02:53:29;;;;;;;41.47;37.53;;;;;;;;;;5054249;28;20244;-85
2021/12/03 02:55:58;;;;;;;51.67;40.10;;;;;;;;;;5054104;28;20205;-85
2021/12/03 02:58:26;;;;;;;44.88;36.30;;;;;;;;;;5054417;28;20188;-85
2021/12/03 03:00:53;;;;;;;53.15;42.28;;;;;;;;;;5054316;28;20195;-85
2021/12/03 03:03:21;;;;;;;34.58;30.33;;;;;;;;;;5052754;28;20240;-85
2021/12/03 03:05:54;;;;;;;50.33;37.28;;;;;;;;;;5054359;28;20283;-85
2021/12/03 03:08:22;;;;;;;58.15;41.75;;;;;;;;;;5054564;28;20232;-85
2021/12/03 03:10:49;;;;;;;48.75;39.55;;;;;;;;;;5054046;28;20521;-85
2021/12/03 03:13:18;;;;;;;56.17;43.13;;;;;;;;;;5053016;28;20291;-85
2021/12/03 03:15:46;;;;;;;56.97;41.00;;;;;;;;;;5053907;28;20207;-85
2021/12/03 03:18:14;;;;;;;47.15;39.08;;;;;;;;;;5054219;28;20550;-85
2021/12/03 03:20:42;;;;;;;59.47;42.20;;;;;;;;;;5054015;28;20203;-85
2021/12/03 03:23:12;;;;;;;68.40;46.15;;;;;;;;;;5053965;28;20266;-84
2021/12/03 03:25:40;;;;;;;56.50;42.70;;;;;;;;;;5052370;28;20236;-85
2021/12/03 03:28:08;;;;;;;58.65;41.40;;;;;;;;;;5053871;28;20238;-84
2021/12/03 03:30:37;;;;;;;57.88;43.70;;;;;;;;;;5053879;28;20197;-84
2021/12/03 03:33:04;;;;;;;60.35;43.17;;;;;;;;;;5053723;28;20192;-84
2021/12/03 03:35:32;;;;;;;54.80;43.25;;;;;;;;;;5052453;28;20209;-84
2021/12/03 03:38:00;;;;;;;61.10;44.45;;;;;;;;;;5053519;28;20199;-85
2021/12/03 03:40:28;;;;;;;58.35;42.83;;;;;;;;;;5053526;28;20327;-84
2021/12/03 03:42:55;;;;;;;39.60;33.88;;;;;;;;;;5053560;28;20220;-85
2021/12/03 03:45:24;;;;;;;45.42;36.47;;;;;;;;;;5052963;28;20185;-85
2021/12/03 03:47:53;;;;;;;60.25;42.53;;;;;;;;;;5053192;28;20196;-85
2021/12/03 03:50:21;;;;;;;54.45;40.47;;;;;;;;;;5052528;28;20193;-84
2021/12/03 03:52:48;;;;;;;65.28;45.17;;;;;;;;;;5052757;28;20236;-85
2021/12/03 03:55:16;;;;;;;69.03;46.03;;;;;;;;;;5053197;28;20192;-84
2021/12/03 03:57:44;;;;;;;64.30;44.58;;;;;;;;;;5053138;28;20188;-85
2021/12/03 04:00:13;;;;;;;39.28;33.78;;;;;;;;;;5053518;28;20204;-85
2021/12/03 04:02:41;;;;;;;56.35;41.88;;;;;;;;;;5053084;28;20598;-85
2021/12/03 04:05:10;;;;;;;42.03;37.38;;;;;;;;;;5053402;28;20241;-85
2021/12/03 04:07:37;;;;;;;38.70;32.25;;;;;;;;;;5053492;28;20188;-85
2021/12/03 04:10:05;;;;;;;48.75;42.25;;;;;;;;;;5053330;28;20184;-84
2021/12/03 04:12:32;;;;;;;43.28;31.98;;;;;;;;;;5051659;28;20209;-84
2021/12/03 04:15:00;;;;;;;46.28;36.08;;;;;;;;;;5053348;28;20192;-84
2021/12/03 04:17:27;;;;;;;56.00;41.65;;;;;;;;;;5053287;28;20187;-84
2021/12/03 04:19:55;;;;;;;38.00;34.08;;;;;;;;;;5053438;28;20204;-85
2021/12/03 04:22:25;;;;;;;46.58;40.05;;;;;;;;;;5053255;28;20274;-84
2021/12/03 04:24:53;;;;;;;32.65;29.52;;;;;;;;;;5052976;28;20229;-85
2021/12/03 04:27:20;;;;;;;45.67;39.25;;;;;;;;;;5052884;28;20205;-84
2021/12/03 04:29:48;;;;;;;45.60;37.10;;;;;;;;;;5053061;28;20192;-84
2021/12/03 04:32:17;;;;;;;33.47;30.23;;;;;;;;;;5052819;28;20188;-83
2021/12/03 04:34:44;;;;;;;50.42;40.50;;;;;;;;;;5052831;28;20193;-85
2021/12/03 04:37:12;;;;;;;45.45;38.70;;;;;;;;;;5053400;28;20196;-85
2021/12/03 04:39:41;;;;;;;30.83;27.25;;;;;;;;;;5053090;28;20185;-84
2021/12/03 04:42:08;;;;;;;37.67;33.88;;;;;;;;;;5053047;28;20227;-85
2021/12/03 04:44:37;;;;;;;44.80;38.58;;;;;;;;;;5052882;28;20574;-83
2021/12/03 04:47:04;;;;;;;40.97;36.80;;;;;;;;;;5052555;28;20208;-85
2021/12/03 04:49:32;;;;;;;43.40;37.92;;;;;;;;;;5053079;28;20239;-84
2021/12/03 04:51:59;;;;;;;43.22;38.28;;;;;;;;;;5052707;28;20237;-85
2021/12/03 04:54:27;;;;;;;41.70;37.45;;;;;;;;;;5053116;28;20681;-84
2021/12/03 04:56:56;;;;;;;39.60;35.40;;;;;;;;;;5053043;28;20228;-85
2021/12/03 04:59:23;;;;;;;40.22;35.55;;;;;;;;;;5052758;28;20196;-85
2021/12/03 05:01:54;;;;;;;41.33;35.88;;;;;;;;;;5056235;28;20194;-84
2021/12/03 05:04:22;;;;;;;42.00;37.33;;;;;;;;;;5055035;28;20224;-84
2021/12/03 05:07:04;;;;;;;40.00;35.78;;;;;;;;;;5056690;28;20211;-84
2021/12/03 05:09:31;;;;;;;37.60;33.90;;;;;;;;;;5056255;28;20197;-84
2021/12/03 05:12:00;;;;;;;41.03;37.00;;;;;;;;;;5056220;28;20605;-84
2021/12/03 05:14:28;;;;;;;42.05;37.05;;;;;;;;;;5055975;28;20189;-84
2021/12/03 05:16:55;;;;;;;42.72;38.13;;;;;;;;;;5056257;28;20190;-85
2021/12/03 05:19:23;;;;;;;43.83;39.58;;;;;;;;;;5056195;28;20192;-84
2021/12/03 05:21:50;;;;;;;39.28;35.10;;;;;;;;;;5056033;28;20521;-84
2021/12/03 05:24:18;;;;;;;43.30;39.00;;;;;;;;;;5055846;28;20235;-84
2021/12/03 05:26:46;;;;;;;42.85;38.15;;;;;;;;;;5054851;28;20231;-83
2021/12/03 05:29:17;;;;;;;43.95;39.10;;;;;;;;;;5055656;28;20705;-85
2021/12/03 05:31:45;;;;;;;40.22;35.95;;;;;;;;;;5056244;28;20220;-84
2021/12/03 05:34:13;;;;;;;42.80;38.15;;;;;;;;;;5055799;28;20197;-84
2021/12/03 05:36:40;;;;;;;37.58;31.50;;;;;;;;;;5055537;28;20202;-84
2021/12/03 05:39:09;;;;;;;41.20;37.00;;;;;;;;;;5056009;28;20192;-85
2021/12/03 05:41:37;;;;;;;47.72;37.75;;;;;;;;;;5055675;28;20205;-84
2021/12/03 05:44:04;;;;;;;40.58;36.15;;;;;;;;;;5055282;28;20227;-85
2021/12/03 05:46:33;;;;;;;39.85;35.70;;;;;;;;;;5055339;28;20658;-84
2021/12/03 05:49:00;;;;;;;42.00;37.63;;;;;;;;;;5055217;28;20323;-84
2021/12/03 05:51:29;;;;;;;44.05;37.00;;;;;;;;;;5055401;28;20211;-84
2021/12/03 05:53:57;;;;;;;41.78;34.92;;;;;;;;;;5035331;28;20657;-85
2021/12/03 05:56:25;;;;;;;51.45;35.40;;;;;;;;;;5034290;28;20207;-84
2021/12/03 05:58:52;;;;;;;39.38;34.85;;;;;;;;;;5035369;28;20640;-85
2021/12/03 06:01:20;;;;;;;42.03;35.90;;;;;;;;;;5034992;28;20197;-83
2021/12/03 06:03:49;;;;;;;38.40;34.22;;;;;;;;;;5034550;28;20773;-85
2021/12/03 06:06:17;;;;;;;41.33;36.40;;;;;;;;;;5034959;28;20190;-84
2021/12/03 06:08:45;;;;;;;36.72;30.42;;;;;;;;;;5035149;28;20198;-82
2021/12/03 06:11:12;;;;;;;39.60;35.38;;;;;;;;;;5034981;28;20202;-83
2021/12/03 06:13:40;;;;;;;39.35;35.25;;;;;;;;;;5032785;28;20211;-82
2021/12/03 06:16:08;;;;;;;40.58;35.05;;;;;;;;;;5034753;28;20277;-82
2021/12/03 06:18:36;;;;;;;31.08;28.20;;;;;;;;;;5034697;28;20189;-82
2021/12/03 06:21:06;;;;;;;48.28;37.50;;;;;;;;;;5034908;28;20200;-82
2021/12/03 06:23:34;;;;;;;54.13;36.97;;;;;;;;;;5033184;28;20234;-83
2021/12/03 06:26:02;;;;;;;47.33;37.30;;;;;;;;;;5034263;28;20663;-82
2021/12/03 06:28:30;;;;;;;47.47;35.58;;;;;;;;;;5033438;28;20844;-82
2021/12/03 06:30:58;;;;;;;40.72;35.60;;;;;;;;;;5034568;28;20531;-82
2021/12/03 06:33:26;;;;;;;46.60;37.72;;;;;;;;;;5033448;28;20291;-82
2021/12/03 06:35:54;;;;;;;42.65;38.13;;;;;;;;;;5034142;28;20198;-82
2021/12/03 06:38:23;;;;;;;47.70;38.92;;;;;;;;;;5033149;28;20192;-82
2021/12/03 06:40:51;;;;;;;42.28;35.90;;;;;;;;;;5034536;28;20202;-82
2021/12/03 06:43:18;;;;;;;50.88;34.13;;;;;;;;;;5034330;28;20221;-82
2021/12/03 06:45:46;;;;;;;41.38;36.85;;;;;;;;;;5033976;28;20600;-81
2021/12/03 06:48:13;;;;;;;45.72;39.45;;;;;;;;;;5034337;28;20192;-83
2021/12/03 06:50:42;;;;;;;40.15;34.13;;;;;;;;;;5033905;28;20631;-82
2021/12/03 06:53:11;;;;;;;31.23;28.00;;;;;;;;;;5047783;28;20228;-82
2021/12/03 06:55:45;;;;;;;38.70;34.85;;;;;;;;;;5058330;28;20206;-80
2021/12/03 06:58:13;;;;;;;32.17;29.17;;;;;;;;;;5066697;28;20202;-82
2021/12/03 07:00:40;;;;;;;41.30;36.83;;;;;;;;;;5062381;28;20211;-84
2021/12/03 07:03:08;;;;;;;36.60;33.03;;;;;;;;;;5073592;28;20211;-81
2021/12/03 07:05:38;;;;;;;40.70;36.40;;;;;;;;;;5064389;28;20194;-81
2021/12/03 07:08:06;;;;;;;43.17;38.45;;;;;;;;;;5057833;28;20645;-82
2021/12/03 07:10:34;;;;;;;41.38;36.92;;;;;;;;;;5061702;28;20248;-82
2021/12/03 07:13:03;;;;;;;43.85;38.20;;;;;;;;;;5058060;28;20188;-82
2021/12/03 07:15:31;;;;;;;39.85;33.58;;;;;;;;;;5054439;28;20242;-84
2021/12/03 07:17:58;;;;;;;44.58;38.58;;;;;;;;;;5054229;28;20192;-85
2021/12/03 07:20:27;;;;;;;36.38;32.72;;;;;;;;;;5054231;28;20196;-83
2021/12/03 07:22:55;;;;;;;37.47;33.65;;;;;;;;;;5053430;28;20215;-82
2021/12/03 07:25:24;;;;;;;40.58;35.55;;;;;;;;;;5052829;28;20199;-83
2021/12/03 07:27:51;;;;;;;39.42;35.45;;;;;;;;;;5054597;28;20189;-83
2021/12/03 07:30:21;;;;;;;34.08;30.80;;;;;;;;;;5053303;28;20200;-82
2021/12/03 07:32:48;;;;;;;37.15;33.42;;;;;;;;;;5053596;28;20199;-82
2021/12/03 07:35:16;;;;;;;34.63;30.23;;;;;;;;;;5053418;28;20199;-83
2021/12/03 07:37:44;;;;;;;44.17;33.72;;;;;;;;;;5052046;28;20800;-83
2021/12/03 07:40:12;;;;;;;27.35;25.27;;;;;;;;;;5053354;28;20232;-83
2021/12/03 07:42:39;;;;;;;38.08;34.08;;;;;;;;;;5053078;28;20197;-83
2021/12/03 07:45:08;;;;;;;37.55;33.75;;;;;;;;;;5053195;28;20192;-83
2021/12/03 07:47:37;;;;;;;35.30;31.40;;;;;;;;;;5053133;28;20193;-81
2021/12/03 07:50:05;;;;;;;34.08;31.02;;;;;;;;;;5053010;28;20197;-81
2021/12/03 07:52:34;;;;;;;36.17;32.55;;;;;;;;;;5052981;28;20233;-80
2021/12/03 07:55:01;;;;;;;34.88;31.13;;;;;;;;;;5052938;28;20252;-81
2021/12/03 07:57:28;;;;;;;35.92;32.30;;;;;;;;;;5052754;28;20196;-81
2021/12/03 07:59:56;;;;;;;34.53;30.65;;;;;;;;;;5052810;28;20215;-81
2021/12/03 08:02:24;;;;;;;35.88;32.47;;;;;;;;;;5052960;28;20192;-81
2021/12/03 08:04:52;;;;;;;35.20;30.73;;;;;;;;;;5052656;28;20592;-81
2021/12/03 08:07:20;;;;;;;34.45;31.05;;;;;;;;;;5052944;28;20561;-80
2021/12/03 08:09:47;;;;;;;34.50;30.90;;;;;;;;;;5052904;28;20197;-81
2021/12/03 08:12:14;;;;;;;37.15;33.22;;;;;;;;;;5052946;28;20189;-81
2021/12/03 08:14:42;;;;;;;33.05;29.45;;;;;;;;;;5052903;28;20210;-81
2021/12/03 08:17:09;;;;;;;36.08;32.35;;;;;;;;;;5052553;28;20190;-81
2021/12/03 08:19:36;;;;;;;34.95;31.38;;;;;;;;;;5054889;28;20203;-80
2021/12/03 08:22:05;;;;;;;36.28;32.42;;;;;;;;;;5053004;28;20197;-81
2021/12/03 08:24:33;;;;;;;33.90;30.60;;;;;;;;;;5052866;28;20216;-80
2021/12/03 08:27:01;;;;;;;31.98;28.95;;;;;;;;;;5054375;28;20197;-81
2021/12/03 08:29:28;;;;;;;37.63;34.17;;;;;;;;;;5053021;28;20222;-80
2021/12/03 08:31:55;;;;;;;36.35;32.70;;;;;;;;;;5053475;28;20221;-81
2021/12/03 08:34:23;;;;;;;32.53;28.83;;;;;;;;;;5054438;28;20194;-81
2021/12/03 08:36:50;;;;;;;32.10;29.08;;;;;;;;;;5057201;28;20205;-80
2021/12/03 08:39:20;;;;;;;35.30;29.40;;;;;;;;;;5056962;28;20193;-80
2021/12/03 08:41:48;;;;;;;39.85;35.63;;;;;;;;;;5057092;28;20212;-81
2021/12/03 08:44:16;;;;;;;39.22;35.22;;;;;;;;;;5056966;28;20883;-80
2021/12/03 08:46:43;;;;;;;40.53;36.33;;;;;;;;;;5056993;28;20189;-80
2021/12/03 08:49:15;;;;;;;35.00;31.40;;;;;;;;;;5057227;28;20235;-81
2021/12/03 08:57:16;;;;;;;42.90;36.88;;;;;;;;;;5055966;28;20224;-82
2021/12/03 08:59:43;;;;;;;38.35;33.92;;;;;;;;;;5057560;28;20189;-82
2021/12/03 09:02:11;;;;;;;43.05;36.60;;;;;;;;;;5057561;28;20197;-82
2021/12/03 09:04:38;;;;;;;40.10;36.30;;;;;;;;;;5057579;28;20621;-82
2021/12/03 09:07:06;;;;;;;39.55;34.60;;;;;;;;;;5057720;28;20196;-82
2021/12/03 09:09:35;;;;;;;40.20;36.22;;;;;;;;;;5058576;28;20211;-91
2021/12/03 09:12:02;;;;;;;38.80;34.63;;;;;;;;;;5057758;28;20281;-81
2021/12/03 09:14:35;;;;;;;33.15;29.70;;;;;;;;;;5057057;28;20189;-87
2021/12/03 09:17:12;;;;;;;38.03;34.05;;;;;;;;;;5057761;28;20188;-85
2021/12/03 09:19:46;;;;;;;37.88;34.08;;;;;;;;;;5056898;28;20204;-79
2021/12/03 09:22:24;;;;;;;38.65;34.65;;;;;;;;;;5056536;28;20647;-85
2021/12/03 09:24:53;;;;;;;36.33;32.33;;;;;;;;;;5057455;28;20264;-87
2021/12/03 09:27:21;;;;;;;33.35;30.08;;;;;;;;;;5057491;28;20262;-81
2021/12/03 09:29:49;;;;;;;41.13;35.13;;;;;;;;;;5057119;28;20216;-80
2021/12/03 09:32:22;;;;;;;41.28;33.60;;;;;;;;;;5056891;28;20185;-83
2021/12/03 09:34:50;;;;;;;36.88;32.92;;;;;;;;;;5056469;28;20227;-81
2021/12/03 09:37:18;;;;;;;39.97;35.63;;;;;;;;;;5056579;28;20192;-81
2021/12/03 09:39:45;;;;;;;37.03;32.95;;;;;;;;;;5058526;28;20194;-80
2021/12/03 09:42:18;;;;;;;36.55;33.00;;;;;;;;;;5056382;28;20247;-81
2021/12/03 09:44:49;;;;;;;40.17;35.85;;;;;;;;;;5056579;28;20266;-81
2021/12/03 09:47:17;;;;;;;42.05;37.75;;;;;;;;;;5054585;28;20699;-85
2021/12/03 09:49:45;;;;;;;41.72;32.22;;;;;;;;;;5059010;28;20200;-90
2021/12/03 09:52:18;;;;;;;40.13;34.28;;;;;;;;;;5057049;28;20591;-88
2021/12/03 09:54:48;;;;;;;36.67;32.70;;;;;;;;;;5058827;28;20202;-88
2021/12/03 09:57:27;;;;;;;36.67;32.70;;;;;;;;;;5057794;28;20192;-87
2021/12/03 10:14:04;;;;;;;41.50;34.33;;;;;;;;;;5056656;28;20193;-85
2021/12/03 10:16:47;;;;;;;39.40;32.75;;;;;;;;;;5055060;28;20193;-78
2021/12/03 10:19:28;;;;;;;41.25;35.35;;;;;;;;;;5055898;28;20262;-87
2021/12/03 10:22:14;;;;;;;31.63;28.75;;;;;;;;;;5056359;28;20232;-87
2021/12/03 10:25:03;;;;;;;38.75;34.75;;;;;;;;;;5057012;28;20224;-90
2021/12/03 10:33:25;;;;;;;33.10;30.17;;;;;;;;;;5055295;28;20204;-86
2021/12/03 10:36:14;;;;;;;35.97;32.05;;;;;;;;;;5058452;28;20192;-91
2021/12/03 10:38:52;;;;;;;28.33;26.10;;;;;;;;;;5058172;28;20189;-88
2021/12/03 10:41:31;;;;;;;31.40;28.25;;;;;;;;;;5054993;28;20288;-86
2021/12/03 10:44:11;;;;;;;33.10;28.58;;;;;;;;;;5065817;28;20232;-83
2021/12/03 10:46:49;;;;;;;29.08;26.85;;;;;;;;;;5057763;28;20194;-83
2021/12/03 10:52:26;;;;;;;31.92;28.85;;;;;;;;;;5012153;28;20230;-82
2021/12/03 13:23:43;;;;;;;22.40;20.92;;;;;;;;;;5084879;28;20233;-92
2021/12/03 14:00:23;;;;;;;23.35;21.58;;;;;;;;;;5108215;28;20190;-94
2021/12/03 14:37:32;;;;;;;30.15;27.35;;;;;;;;;;5066660;28;20247;-89
2021/12/03 14:40:20;;;;;;;32.20;29.30;;;;;;;;;;5076110;28;20197;-88
2021/12/03 14:42:55;;;;;;;29.13;26.60;;;;;;;;;;5080199;28;20701;-87
2021/12/03 14:45:35;;;;;;;33.63;30.75;;;;;;;;;;5077685;28;20219;-92
2021/12/03 14:51:03;;;;;;;33.13;30.15;;;;;;;;;;5078013;28;20250;-86
2021/12/03 14:56:35;;;;;;;41.20;37.30;;;;;;;;;;5096490;27;1681501;-90
2021/12/03 14:59:18;;;;;;;47.47;42.35;;;;;;;;;;5133707;28;20226;-91
2021/12/03 15:01:49;;;;;;;35.83;32.58;;;;;;;;;;5134071;28;20225;-88
2021/12/03 15:07:15;;;;;;;40.65;36.88;;;;;;;;;;5132699;28;20732;-88
2021/12/03 15:13:03;;;;;;;36.05;33.00;;;;;;;;;;5086770;22;20241;-95
2021/12/03 15:26:45;;;;;;;22.90;21.50;;;;;;;;;;5010854;28;20242;-96
2021/12/03 15:31:59;;;;;;;25.55;23.70;;;;;;;;;;5009774;28;20842;-94
2021/12/03 16:04:52;;;;;;;24.77;22.30;;;;;;;;;;5069010;28;20504;-93
2021/12/03 16:07:36;;;;;;;22.90;21.70;;;;;;;;;;5058173;28;20274;-85
2021/12/03 16:13:02;;;;;;;22.92;21.52;;;;;;;;;;5053491;28;20211;-83
2021/12/03 16:15:59;;;;;;;22.40;21.00;;;;;;;;;;5054094;28;20298;-82
2021/12/03 16:18:47;;;;;;;25.77;23.77;;;;;;;;;;5054018;28;20193;-84
2021/12/03 16:43:43;;;;;;;23.63;21.92;;;;;;;;;;5057504;28;20197;-86
2021/12/03 16:51:57;;;;;;;23.63;22.13;;;;;;;;;;5071594;28;20212;-96
2021/12/03 16:54:28;;;;;;;22.13;20.73;;;;;;;;;;5073817;28;20209;-94
2021/12/03 16:59:39;;;;;;;24.45;22.65;;;;;;;;;;5433883;22;20238;-96
2021/12/03 17:02:09;;;;;;;23.73;22.13;;;;;;;;;;5055487;22;20231;-87
2021/12/03 17:04:54;;;;;;;22.80;21.40;;;;;;;;;;5034890;28;20203;-86
2021/12/03 17:10:44;;;;;;;22.85;21.25;;;;;;;;;;5035240;28;20530;-86
2021/12/03 17:46:48;;;;;;;22.98;21.58;;;;;;;;;;5029987;28;20214;-89
2021/12/03 17:49:23;;;;;;;23.50;21.65;;;;;;;;;;5031978;28;20212;-88
2021/12/03 17:51:55;;;;;;;23.42;21.92;;;;;;;;;;5029512;28;20205;-89
2021/12/03 17:54:34;;;;;;;22.38;21.08;;;;;;;;;;5031397;28;20209;-86
2021/12/03 17:57:09;;;;;;;22.30;21.00;;;;;;;;;;5032884;28;20571;-87
2021/12/03 17:59:41;;;;;;;24.80;23.13;;;;;;;;;;5030467;28;20241;-87
2021/12/03 18:02:16;;;;;;;24.85;23.10;;;;;;;;;;5026047;28;20250;-87
2021/12/03 18:07:47;;;;;;;25.00;23.40;;;;;;;;;;5069630;27;1555168;-90
2021/12/03 18:10:35;;;;;;;21.27;19.98;;;;;;;;;;5102441;28;20200;-90
2021/12/03 18:51:34;;;;;;;23.25;21.80;;;;;;;;;;5100602;28;20695;-87
2021/12/03 18:56:47;;;;;;;24.17;22.70;;;;;;;;;;5097647;28;20257;-87
2021/12/03 18:59:15;;;;;;;24.80;23.30;;;;;;;;;;5102543;28;20243;-86
2021/12/03 19:01:43;;;;;;;24.10;22.60;;;;;;;;;;5101228;28;20240;-86
2021/12/03 19:06:59;;;;;;;21.67;20.45;;;;;;;;;;5100174;28;20764;-86
2021/12/03 19:09:31;;;;;;;26.73;24.83;;;;;;;;;;5100857;28;20302;-84
2021/12/03 19:12:03;;;;;;;24.15;22.52;;;;;;;;;;5100241;28;20249;-86
2021/12/03 19:14:34;;;;;;;25.90;24.15;;;;;;;;;;5101438;28;20197;-86
2021/12/03 19:17:01;;;;;;;24.60;22.90;;;;;;;;;;5096547;28;20237;-86
2021/12/03 19:19:30;;;;;;;26.98;25.17;;;;;;;;;;5086607;28;20209;-85
2021/12/03 19:21:59;;;;;;;23.48;21.88;;;;;;;;;;5087003;28;20299;-86
2021/12/03 19:24:28;;;;;;;24.17;22.67;;;;;;;;;;5086306;28;20658;-84
2021/12/03 19:26:55;;;;;;;22.35;20.73;;;;;;;;;;5086632;28;20319;-86
2021/12/03 19:29:25;;;;;;;23.27;21.60;;;;;;;;;;5089257;28;20209;-86
2021/12/03 19:31:53;;;;;;;22.50;21.10;;;;;;;;;;5087669;28;20564;-86
2021/12/03 19:34:21;;;;;;;22.98;21.65;;;;;;;;;;5083657;28;20270;-85
2021/12/03 19:36:48;;;;;;;22.83;21.45;;;;;;;;;;5085307;28;20211;-85
2021/12/03 19:39:16;;;;;;;23.17;21.67;;;;;;;;;;5089615;28;20201;-85
2021/12/03 19:41:48;;;;;;;22.63;21.23;;;;;;;;;;5085694;28;20200;-85
2021/12/03 19:44:16;;;;;;;22.88;21.50;;;;;;;;;;5070599;28;20294;-85
2021/12/03 19:46:47;;;;;;;22.35;21.05;;;;;;;;;;5087588;28;20283;-86
2021/12/03 19:49:19;;;;;;;21.90;20.50;;;;;;;;;;5085880;28;20552;-84
2021/12/03 19:51:49;;;;;;;22.45;21.15;;;;;;;;;;5084267;28;20204;-83
2021/12/03 19:54:16;;;;;;;22.30;21.08;;;;;;;;;;5089215;28;20204;-85
2021/12/03 19:56:44;;;;;;;21.83;20.48;;;;;;;;;;5087350;28;20205;-85
2021/12/03 19:59:11;;;;;;;22.50;21.10;;;;;;;;;;5085919;28;20207;-86
2021/12/03 20:01:39;;;;;;;22.35;20.98;;;;;;;;;;5083700;28;20229;-85
2021/12/03 20:04:09;;;;;;;22.30;21.05;;;;;;;;;;5086068;28;20213;-87
2021/12/03 20:06:39;;;;;;;23.35;21.92;;;;;;;;;;5086166;28;20407;-86
2021/12/03 20:09:08;;;;;;;22.02;20.80;;;;;;;;;;5087659;28;20291;-88
2021/12/03 20:11:40;;;;;;;22.17;20.80;;;;;;;;;;5086331;28;20202;-88
2021/12/03 20:14:10;;;;;;;23.95;22.38;;;;;;;;;;5086054;28;20613;-89
2021/12/03 20:16:39;;;;;;;23.45;21.90;;;;;;;;;;5087774;28;20249;-86
2021/12/03 20:19:13;;;;;;;21.58;20.48;;;;;;;;;;5084838;28;20237;-85
2021/12/03 20:21:45;;;;;;;23.15;21.85;;;;;;;;;;5085849;28;20230;-86
2021/12/03 20:24:26;;;;;;;21.85;20.65;;;;;;;;;;5087399;28;20547;-87
2021/12/03 20:26:56;;;;;;;21.92;20.73;;;;;;;;;;5068530;28;20303;-88
2021/12/03 20:29:33;;;;;;;22.90;21.40;;;;;;;;;;5086163;28;20218;-88
2021/12/03 20:32:12;;;;;;;22.30;21.00;;;;;;;;;;5084337;28;20287;-89
2021/12/03 20:37:37;;;;;;;22.45;21.10;;;;;;;;;;5024155;28;20226;-88
2021/12/03 20:40:08;;;;;;;23.92;22.52;;;;;;;;;;5023123;28;20694;-88
2021/12/03 20:42:41;;;;;;;22.63;21.40;;;;;;;;;;5025433;28;20292;-89
2021/12/03 20:45:31;;;;;;;21.75;20.60;;;;;;;;;;5025406;28;20234;-89
2021/12/03 20:48:21;;;;;;;21.55;20.48;;;;;;;;;;5024349;28;20234;-89
2021/12/03 20:51:08;;;;;;;21.42;20.25;;;;;;;;;;5022890;28;20214;-89
2021/12/03 20:53:39;;;;;;;21.00;19.95;;;;;;;;;;5023564;28;20215;-89
2021/12/03 21:09:58;;;;;;;21.80;20.60;;;;;;;;;;4929540;29;20221;-87
2021/12/03 21:12:29;;;;;;;21.92;20.83;;;;;;;;;;4929574;28;20304;-87
2021/12/03 21:15:11;;;;;;;22.50;21.20;;;;;;;;;;4992695;28;20193;-86
2021/12/03 21:17:48;;;;;;;23.05;21.70;;;;;;;;;;4992819;28;20757;-86
2021/12/03 21:20:22;;;;;;;21.38;19.98;;;;;;;;;;4992626;28;20231;-85
2021/12/03 21:22:53;;;;;;;21.75;20.45;;;;;;;;;;4992752;28;20208;-84
2021/12/03 21:25:24;;;;;;;21.50;20.40;;;;;;;;;;4973271;28;20200;-87
2021/12/03 21:27:58;;;;;;;23.88;22.55;;;;;;;;;;4972990;28;20236;-86
2021/12/03 21:30:39;;;;;;;23.50;22.10;;;;;;;;;;4973421;28;20277;-87
2021/12/03 21:39:02;;;;;;;22.38;21.08;;;;;;;;;;5036424;28;20208;-85
2021/12/03 21:41:29;;;;;;;23.00;21.70;;;;;;;;;;5073342;28;20200;-87
2021/12/03 21:43:58;;;;;;;21.58;20.38;;;;;;;;;;5073478;28;20223;-87
2021/12/03 21:46:27;;;;;;;21.20;19.80;;;;;;;;;;5073534;28;20244;-87
2021/12/03 21:48:55;;;;;;;22.33;20.92;;;;;;;;;;5073526;28;20186;-87
2021/12/03 21:51:24;;;;;;;22.35;21.05;;;;;;;;;;5073455;28;20204;-86
2021/12/03 21:53:53;;;;;;;22.30;20.85;;;;;;;;;;5073528;28;20204;-86